sensor_id;sensor_type;location;lat;lon;timestamp;P1;durP1;ratioP1;P2;durP2;ratioP2
18042;SDS011;9146;48.074;11.968;2023-04-03T00:02:09;17.23;;;12.10;;
18042;SDS011;9146;48.074;11.968;2023-04-03T00:04:36;19.73;;;11.50;;
18042;SDS011;9146;48.074;11.968;2023-04-03T00:07:03;16.30;;;11.40;;
18042;SDS011;9146;48.074;11.968;2023-04-03T00:09:31;14.80;;;10.10;;
18042;SDS011;9146;48.074;11.968;2023-04-03T00:11:58;19.60;;;11.87;;
18042;SDS011;9146;48.074;11.968;2023-04-03T00:14:25;17.43;;;11.83;;
18042;SDS011;9146;48.074;11.968;2023-04-03T00:16:52;19.80;;;12.40;;
18042;SDS011;9146;48.074;11.968;2023-04-03T00:19:19;17.13;;;12.00;;
18042;SDS011;9146;48.074;11.968;2023-04-03T00:21:46;21.60;;;12.63;;
18042;SDS011;9146;48.074;11.968;2023-04-03T00:24:13;17.23;;;11.77;;
18042;SDS011;9146;48.074;11.968;2023-04-03T00:26:41;17.70;;;11.97;;
18042;SDS011;9146;48.074;11.968;2023-04-03T00:29:08;17.97;;;11.27;;
18042;SDS011;9146;48.074;11.968;2023-04-03T00:31:35;20.43;;;12.20;;
18042;SDS011;9146;48.074;11.968;2023-04-03T00:34:02;18.40;;;11.33;;
18042;SDS011;9146;48.074;11.968;2023-04-03T00:36:29;17.57;;;11.70;;
18042;SDS011;9146;48.074;11.968;2023-04-03T00:38:56;21.53;;;12.90;;
18042;SDS011;9146;48.074;11.968;2023-04-03T00:41:23;21.30;;;11.70;;
18042;SDS011;9146;48.074;11.968;2023-04-03T00:43:52;18.33;;;11.50;;
18042;SDS011;9146;48.074;11.968;2023-04-03T04:57:12;10.00;;;8.17;;
18042;SDS011;9146;48.074;11.968;2023-04-03T04:59:39;10.63;;;8.70;;
18042;SDS011;9146;48.074;11.968;2023-04-03T05:02:06;10.33;;;8.50;;
18042;SDS011;9146;48.074;11.968;2023-04-03T05:04:33;9.60;;;8.27;;
18042;SDS011;9146;48.074;11.968;2023-04-03T05:07:00;11.60;;;8.57;;
18042;SDS011;9146;48.074;11.968;2023-04-03T05:09:27;10.17;;;8.53;;
18042;SDS011;9146;48.074;11.968;2023-04-03T05:11:54;10.13;;;8.77;;
18042;SDS011;9146;48.074;11.968;2023-04-03T05:14:22;8.60;;;7.47;;
18042;SDS011;9146;48.074;11.968;2023-04-03T05:16:50;11.20;;;9.00;;
18042;SDS011;9146;48.074;11.968;2023-04-03T05:19:18;10.40;;;8.30;;
18042;SDS011;9146;48.074;11.968;2023-04-03T05:21:45;11.23;;;9.00;;
18042;SDS011;9146;48.074;11.968;2023-04-03T05:24:13;11.07;;;8.57;;
18042;SDS011;9146;48.074;11.968;2023-04-03T05:26:40;12.67;;;8.50;;
18042;SDS011;9146;48.074;11.968;2023-04-03T05:29:07;9.60;;;7.67;;
18042;SDS011;9146;48.074;11.968;2023-04-03T05:31:36;8.23;;;7.20;;
18042;SDS011;9146;48.074;11.968;2023-04-03T05:34:03;10.03;;;8.40;;
18042;SDS011;9146;48.074;11.968;2023-04-03T05:36:31;8.43;;;7.53;;
18042;SDS011;9146;48.074;11.968;2023-04-03T05:38:58;8.30;;;7.53;;
18042;SDS011;9146;48.074;11.968;2023-04-03T05:41:25;7.60;;;6.90;;
18042;SDS011;9146;48.074;11.968;2023-04-03T05:43:52;10.03;;;7.53;;
18042;SDS011;9146;48.074;11.968;2023-04-03T05:46:19;9.50;;;7.00;;
18042;SDS011;9146;48.074;11.968;2023-04-03T05:48:48;7.73;;;6.87;;
18042;SDS011;9146;48.074;11.968;2023-04-03T05:51:16;8.60;;;7.67;;
18042;SDS011;9146;48.074;11.968;2023-04-03T05:53:44;7.43;;;6.67;;
18042;SDS011;9146;48.074;11.968;2023-04-03T05:56:12;10.13;;;7.47;;
18042;SDS011;9146;48.074;11.968;2023-04-03T05:58:40;10.23;;;6.93;;
18042;SDS011;9146;48.074;11.968;2023-04-03T06:01:07;7.77;;;6.70;;
18042;SDS011;9146;48.074;11.968;2023-04-03T06:03:34;9.00;;;7.30;;
18042;SDS011;9146;48.074;11.968;2023-04-03T06:06:03;8.60;;;7.70;;
18042;SDS011;9146;48.074;11.968;2023-04-03T06:08:31;6.80;;;6.17;;
18042;SDS011;9146;48.074;11.968;2023-04-03T06:10:59;9.40;;;6.73;;
18042;SDS011;9146;48.074;11.968;2023-04-03T06:13:27;9.33;;;7.57;;
18042;SDS011;9146;48.074;11.968;2023-04-03T06:15:54;8.20;;;7.40;;
18042;SDS011;9146;48.074;11.968;2023-04-03T06:18:21;7.17;;;6.47;;
18042;SDS011;9146;48.074;11.968;2023-04-03T06:20:48;7.30;;;6.50;;
18042;SDS011;9146;48.074;11.968;2023-04-03T06:23:16;8.57;;;7.33;;
18042;SDS011;9146;48.074;11.968;2023-04-03T06:25:43;7.53;;;6.73;;
18042;SDS011;9146;48.074;11.968;2023-04-03T06:28:11;11.50;;;7.53;;
18042;SDS011;9146;48.074;11.968;2023-04-03T06:30:38;9.63;;;7.77;;
18042;SDS011;9146;48.074;11.968;2023-04-03T06:33:05;10.10;;;6.70;;
18042;SDS011;9146;48.074;11.968;2023-04-03T06:35:32;7.63;;;6.83;;
18042;SDS011;9146;48.074;11.968;2023-04-03T06:38:00;7.37;;;6.67;;
18042;SDS011;9146;48.074;11.968;2023-04-03T06:40:30;7.50;;;6.70;;
18042;SDS011;9146;48.074;11.968;2023-04-03T06:42:57;7.33;;;6.60;;
18042;SDS011;9146;48.074;11.968;2023-04-03T06:45:25;6.70;;;6.07;;
18042;SDS011;9146;48.074;11.968;2023-04-03T06:47:52;8.97;;;7.10;;
18042;SDS011;9146;48.074;11.968;2023-04-03T06:50:19;9.43;;;6.20;;
18042;SDS011;9146;48.074;11.968;2023-04-03T06:52:46;7.10;;;6.30;;
18042;SDS011;9146;48.074;11.968;2023-04-03T06:55:13;7.03;;;6.10;;
18042;SDS011;9146;48.074;11.968;2023-04-03T06:57:42;5.73;;;5.23;;
18042;SDS011;9146;48.074;11.968;2023-04-03T07:00:10;7.90;;;5.40;;
18042;SDS011;9146;48.074;11.968;2023-04-03T07:02:38;5.83;;;5.30;;
18042;SDS011;9146;48.074;11.968;2023-04-03T07:05:05;11.40;;;4.97;;
18042;SDS011;9146;48.074;11.968;2023-04-03T07:07:34;5.80;;;5.20;;
18042;SDS011;9146;48.074;11.968;2023-04-03T07:10:01;5.63;;;5.13;;
18042;SDS011;9146;48.074;11.968;2023-04-03T07:12:28;6.43;;;5.50;;
18042;SDS011;9146;48.074;11.968;2023-04-03T07:14:56;10.43;;;5.03;;
18042;SDS011;9146;48.074;11.968;2023-04-03T07:17:23;5.50;;;5.00;;
18042;SDS011;9146;48.074;11.968;2023-04-03T07:19:50;5.93;;;5.40;;
18042;SDS011;9146;48.074;11.968;2023-04-03T07:22:17;5.90;;;5.30;;
18042;SDS011;9146;48.074;11.968;2023-04-03T07:24:44;12.60;;;5.70;;
18042;SDS011;9146;48.074;11.968;2023-04-03T07:27:12;5.93;;;5.13;;
18042;SDS011;9146;48.074;11.968;2023-04-03T07:29:39;5.63;;;5.17;;
18042;SDS011;9146;48.074;11.968;2023-04-03T07:32:07;5.30;;;4.80;;
18042;SDS011;9146;48.074;11.968;2023-04-03T07:34:35;6.40;;;5.20;;
18042;SDS011;9146;48.074;11.968;2023-04-03T07:37:02;6.30;;;5.70;;
18042;SDS011;9146;48.074;11.968;2023-04-03T07:39:29;5.23;;;4.73;;
18042;SDS011;9146;48.074;11.968;2023-04-03T07:41:57;5.37;;;4.90;;
18042;SDS011;9146;48.074;11.968;2023-04-03T07:44:24;7.10;;;4.43;;
18042;SDS011;9146;48.074;11.968;2023-04-03T07:46:52;5.33;;;4.83;;
18042;SDS011;9146;48.074;11.968;2023-04-03T07:49:21;5.60;;;4.70;;
18042;SDS011;9146;48.074;11.968;2023-04-03T07:51:49;5.03;;;4.63;;
18042;SDS011;9146;48.074;11.968;2023-04-03T07:54:16;6.83;;;5.73;;
18042;SDS011;9146;48.074;11.968;2023-04-03T07:56:43;6.93;;;5.53;;
18042;SDS011;9146;48.074;11.968;2023-04-03T07:59:10;5.20;;;4.80;;
18042;SDS011;9146;48.074;11.968;2023-04-03T08:01:37;5.60;;;5.03;;
18042;SDS011;9146;48.074;11.968;2023-04-03T08:04:04;5.40;;;4.90;;
18042;SDS011;9146;48.074;11.968;2023-04-03T08:06:33;5.27;;;4.50;;
18042;SDS011;9146;48.074;11.968;2023-04-03T08:09:01;5.30;;;4.90;;
18042;SDS011;9146;48.074;11.968;2023-04-03T08:11:30;6.17;;;5.53;;
18042;SDS011;9146;48.074;11.968;2023-04-03T08:13:57;5.30;;;4.87;;
18042;SDS011;9146;48.074;11.968;2023-04-03T08:16:24;4.40;;;4.00;;
18042;SDS011;9146;48.074;11.968;2023-04-03T08:18:52;6.20;;;3.80;;
18042;SDS011;9146;48.074;11.968;2023-04-03T08:21:20;5.10;;;3.57;;
18042;SDS011;9146;48.074;11.968;2023-04-03T08:23:49;6.10;;;3.90;;
18042;SDS011;9146;48.074;11.968;2023-04-03T08:26:17;4.03;;;3.63;;
18042;SDS011;9146;48.074;11.968;2023-04-03T08:28:46;3.97;;;3.67;;
18042;SDS011;9146;48.074;11.968;2023-04-03T08:31:13;4.27;;;3.50;;
18042;SDS011;9146;48.074;11.968;2023-04-03T08:33:43;4.27;;;3.87;;
18042;SDS011;9146;48.074;11.968;2023-04-03T08:36:16;4.23;;;3.83;;
18042;SDS011;9146;48.074;11.968;2023-04-03T08:38:46;4.17;;;3.87;;
18042;SDS011;9146;48.074;11.968;2023-04-03T08:41:16;3.47;;;3.27;;
18042;SDS011;9146;48.074;11.968;2023-04-03T08:44:00;4.23;;;3.80;;
18042;SDS011;9146;48.074;11.968;2023-04-03T08:46:36;4.63;;;4.23;;
18042;SDS011;9146;48.074;11.968;2023-04-03T08:49:14;3.80;;;3.50;;
18042;SDS011;9146;48.074;11.968;2023-04-03T08:51:47;4.23;;;3.50;;
18042;SDS011;9146;48.074;11.968;2023-04-03T08:54:19;4.70;;;4.13;;
18042;SDS011;9146;48.074;11.968;2023-04-03T08:56:54;4.67;;;4.03;;
18042;SDS011;9146;48.074;11.968;2023-04-03T08:59:24;4.27;;;3.87;;
18042;SDS011;9146;48.074;11.968;2023-04-03T09:01:54;5.50;;;4.37;;
18042;SDS011;9146;48.074;11.968;2023-04-03T09:04:31;4.63;;;4.17;;
18042;SDS011;9146;48.074;11.968;2023-04-03T09:07:01;11.23;;;4.00;;
18042;SDS011;9146;48.074;11.968;2023-04-03T09:09:32;7.00;;;4.17;;
18042;SDS011;9146;48.074;11.968;2023-04-03T09:12:06;7.60;;;3.93;;
18042;SDS011;9146;48.074;11.968;2023-04-03T09:14:42;3.73;;;3.43;;
18042;SDS011;9146;48.074;11.968;2023-04-03T09:17:21;3.83;;;3.40;;
18042;SDS011;9146;48.074;11.968;2023-04-03T09:19:58;3.77;;;3.47;;
18042;SDS011;9146;48.074;11.968;2023-04-03T09:22:34;4.47;;;3.50;;
18042;SDS011;9146;48.074;11.968;2023-04-03T09:25:05;4.13;;;3.73;;
18042;SDS011;9146;48.074;11.968;2023-04-03T09:27:40;6.57;;;3.70;;
18042;SDS011;9146;48.074;11.968;2023-04-03T09:30:11;3.70;;;3.47;;
18042;SDS011;9146;48.074;11.968;2023-04-03T09:32:41;4.00;;;3.60;;
18042;SDS011;9146;48.074;11.968;2023-04-03T09:35:15;3.17;;;2.97;;
18042;SDS011;9146;48.074;11.968;2023-04-03T09:37:50;8.60;;;3.40;;
18042;SDS011;9146;48.074;11.968;2023-04-03T09:40:35;3.50;;;2.90;;
18042;SDS011;9146;48.074;11.968;2023-04-03T09:43:22;4.70;;;3.63;;
18042;SDS011;9146;48.074;11.968;2023-04-03T09:45:51;3.60;;;3.30;;
18042;SDS011;9146;48.074;11.968;2023-04-03T09:48:19;2.87;;;2.63;;
18042;SDS011;9146;48.074;11.968;2023-04-03T09:50:58;3.10;;;2.90;;
18042;SDS011;9146;48.074;11.968;2023-04-03T09:53:33;3.70;;;3.13;;
18042;SDS011;9146;48.074;11.968;2023-04-03T09:56:03;3.77;;;3.47;;
18042;SDS011;9146;48.074;11.968;2023-04-03T09:58:33;3.47;;;3.17;;
18042;SDS011;9146;48.074;11.968;2023-04-03T10:01:04;3.87;;;3.07;;
18042;SDS011;9146;48.074;11.968;2023-04-03T10:03:32;3.90;;;3.27;;
18042;SDS011;9146;48.074;11.968;2023-04-03T10:06:01;3.57;;;3.27;;
18042;SDS011;9146;48.074;11.968;2023-04-03T10:08:29;3.53;;;3.20;;
18042;SDS011;9146;48.074;11.968;2023-04-03T10:11:14;3.10;;;2.90;;
18042;SDS011;9146;48.074;11.968;2023-04-03T10:13:52;3.23;;;3.03;;
18042;SDS011;9146;48.074;11.968;2023-04-03T10:16:23;3.20;;;2.60;;
18042;SDS011;9146;48.074;11.968;2023-04-03T10:18:59;2.80;;;2.60;;
18042;SDS011;9146;48.074;11.968;2023-04-03T10:21:34;3.13;;;2.80;;
18042;SDS011;9146;48.074;11.968;2023-04-03T10:24:09;3.57;;;3.20;;
18042;SDS011;9146;48.074;11.968;2023-04-03T10:26:41;3.30;;;3.10;;
18042;SDS011;9146;48.074;11.968;2023-04-03T10:29:19;3.17;;;2.97;;
18042;SDS011;9146;48.074;11.968;2023-04-03T10:31:57;7.70;;;3.57;;
18042;SDS011;9146;48.074;11.968;2023-04-03T10:34:28;4.43;;;4.03;;
18042;SDS011;9146;48.074;11.968;2023-04-03T10:37:00;5.07;;;4.60;;
18042;SDS011;9146;48.074;11.968;2023-04-03T10:39:34;5.10;;;4.60;;
18042;SDS011;9146;48.074;11.968;2023-04-03T10:42:11;4.97;;;4.20;;
18042;SDS011;9146;48.074;11.968;2023-04-03T10:45:04;7.10;;;5.20;;
18042;SDS011;9146;48.074;11.968;2023-04-03T10:47:46;6.50;;;4.57;;
18042;SDS011;9146;48.074;11.968;2023-04-03T10:50:26;4.93;;;4.43;;
18042;SDS011;9146;48.074;11.968;2023-04-03T10:53:13;6.03;;;5.30;;
18042;SDS011;9146;48.074;11.968;2023-04-03T10:55:48;5.33;;;4.83;;
18042;SDS011;9146;48.074;11.968;2023-04-03T10:58:47;5.40;;;4.90;;
18042;SDS011;9146;48.074;11.968;2023-04-03T11:01:42;5.97;;;4.70;;
18042;SDS011;9146;48.074;11.968;2023-04-03T11:04:37;4.50;;;4.20;;
18042;SDS011;9146;48.074;11.968;2023-04-03T11:07:33;4.60;;;4.20;;
18042;SDS011;9146;48.074;11.968;2023-04-03T11:10:30;3.90;;;3.60;;
18042;SDS011;9146;48.074;11.968;2023-04-03T11:13:06;4.83;;;4.40;;
18042;SDS011;9146;48.074;11.968;2023-04-03T11:15:38;5.60;;;5.10;;
18042;SDS011;9146;48.074;11.968;2023-04-03T11:18:08;5.70;;;5.20;;
18042;SDS011;9146;48.074;11.968;2023-04-03T11:20:38;7.73;;;4.40;;
18042;SDS011;9146;48.074;11.968;2023-04-03T11:23:15;5.13;;;3.80;;
18042;SDS011;9146;48.074;11.968;2023-04-03T11:25:48;7.30;;;4.23;;
18042;SDS011;9146;48.074;11.968;2023-04-03T11:28:18;5.73;;;4.00;;
18042;SDS011;9146;48.074;11.968;2023-04-03T11:30:46;4.10;;;3.77;;
18042;SDS011;9146;48.074;11.968;2023-04-03T11:33:27;4.50;;;3.40;;
18042;SDS011;9146;48.074;11.968;2023-04-03T11:35:59;3.23;;;2.93;;
18042;SDS011;9146;48.074;11.968;2023-04-03T11:38:32;4.40;;;3.40;;
18042;SDS011;9146;48.074;11.968;2023-04-03T11:41:02;3.63;;;3.33;;
18042;SDS011;9146;48.074;11.968;2023-04-03T11:43:31;4.33;;;3.30;;
18042;SDS011;9146;48.074;11.968;2023-04-03T11:46:00;5.40;;;3.73;;
18042;SDS011;9146;48.074;11.968;2023-04-03T11:48:47;3.83;;;3.53;;
18042;SDS011;9146;48.074;11.968;2023-04-03T12:03:32;3.73;;;3.00;;
18042;SDS011;9146;48.074;11.968;2023-04-03T12:09:24;3.10;;;2.90;;
18042;SDS011;9146;48.074;11.968;2023-04-03T12:12:00;3.17;;;2.23;;
18042;SDS011;9146;48.074;11.968;2023-04-03T12:14:47;3.30;;;3.00;;
18042;SDS011;9146;48.074;11.968;2023-04-03T12:17:19;2.70;;;2.47;;
18042;SDS011;9146;48.074;11.968;2023-04-03T12:19:49;6.97;;;3.40;;
18042;SDS011;9146;48.074;11.968;2023-04-03T12:22:17;3.07;;;2.77;;
18042;SDS011;9146;48.074;11.968;2023-04-03T12:24:48;5.13;;;3.30;;
18042;SDS011;9146;48.074;11.968;2023-04-03T12:30:13;3.03;;;2.57;;
18042;SDS011;9146;48.074;11.968;2023-04-03T12:33:02;4.53;;;2.50;;
18042;SDS011;9146;48.074;11.968;2023-04-03T12:35:43;2.70;;;2.50;;
18042;SDS011;9146;48.074;11.968;2023-04-03T12:38:33;2.83;;;2.40;;
18042;SDS011;9146;48.074;11.968;2023-04-03T12:44:06;2.20;;;2.00;;
18042;SDS011;9146;48.074;11.968;2023-04-03T12:46:49;5.53;;;2.47;;
18042;SDS011;9146;48.074;11.968;2023-04-03T12:49:22;3.33;;;2.60;;
18042;SDS011;9146;48.074;11.968;2023-04-03T12:51:59;3.33;;;2.50;;
18042;SDS011;9146;48.074;11.968;2023-04-03T12:54:27;2.57;;;2.37;;
18042;SDS011;9146;48.074;11.968;2023-04-03T12:57:13;2.10;;;1.90;;
18042;SDS011;9146;48.074;11.968;2023-04-03T12:59:45;2.03;;;1.93;;
18042;SDS011;9146;48.074;11.968;2023-04-03T13:02:22;3.13;;;2.10;;
18042;SDS011;9146;48.074;11.968;2023-04-03T13:04:52;3.40;;;1.73;;
18042;SDS011;9146;48.074;11.968;2023-04-03T13:07:23;2.40;;;2.07;;
18042;SDS011;9146;48.074;11.968;2023-04-03T13:09:56;2.70;;;1.90;;
18042;SDS011;9146;48.074;11.968;2023-04-03T13:12:30;5.57;;;3.30;;
18042;SDS011;9146;48.074;11.968;2023-04-03T13:14:58;2.30;;;1.93;;
18042;SDS011;9146;48.074;11.968;2023-04-03T13:17:29;2.40;;;1.80;;
18042;SDS011;9146;48.074;11.968;2023-04-03T13:20:08;2.33;;;2.07;;
18042;SDS011;9146;48.074;11.968;2023-04-03T13:22:38;4.17;;;2.10;;
18042;SDS011;9146;48.074;11.968;2023-04-03T13:25:13;3.47;;;2.00;;
18042;SDS011;9146;48.074;11.968;2023-04-03T13:27:43;2.60;;;2.40;;
18042;SDS011;9146;48.074;11.968;2023-04-03T13:30:21;3.00;;;2.30;;
18042;SDS011;9146;48.074;11.968;2023-04-03T13:32:54;1.83;;;1.73;;
18042;SDS011;9146;48.074;11.968;2023-04-03T13:35:31;1.93;;;1.83;;
18042;SDS011;9146;48.074;11.968;2023-04-03T13:38:02;3.77;;;2.17;;
18042;SDS011;9146;48.074;11.968;2023-04-03T13:40:33;2.60;;;2.00;;
18042;SDS011;9146;48.074;11.968;2023-04-03T13:43:03;3.50;;;2.37;;
18042;SDS011;9146;48.074;11.968;2023-04-03T13:45:32;1.70;;;1.60;;
18042;SDS011;9146;48.074;11.968;2023-04-03T13:48:07;4.57;;;2.33;;
18042;SDS011;9146;48.074;11.968;2023-04-03T13:50:50;2.30;;;1.73;;
18042;SDS011;9146;48.074;11.968;2023-04-03T13:53:21;2.00;;;1.80;;
18042;SDS011;9146;48.074;11.968;2023-04-03T13:58:34;1.90;;;1.70;;
18042;SDS011;9146;48.074;11.968;2023-04-03T14:01:07;3.93;;;2.07;;
18042;SDS011;9146;48.074;11.968;2023-04-03T14:03:40;1.40;;;1.40;;
18042;SDS011;9146;48.074;11.968;2023-04-03T14:06:10;2.33;;;2.13;;
18042;SDS011;9146;48.074;11.968;2023-04-03T14:08:38;1.90;;;1.43;;
18042;SDS011;9146;48.074;11.968;2023-04-03T14:11:08;2.00;;;1.80;;
18042;SDS011;9146;48.074;11.968;2023-04-03T14:13:40;2.07;;;1.97;;
18042;SDS011;9146;48.074;11.968;2023-04-03T14:16:07;1.93;;;1.73;;
18042;SDS011;9146;48.074;11.968;2023-04-03T14:18:38;2.10;;;1.90;;
18042;SDS011;9146;48.074;11.968;2023-04-03T14:21:05;3.37;;;1.70;;
18042;SDS011;9146;48.074;11.968;2023-04-03T14:23:32;1.70;;;1.60;;
18042;SDS011;9146;48.074;11.968;2023-04-03T14:26:00;1.70;;;1.60;;
18042;SDS011;9146;48.074;11.968;2023-04-03T14:28:27;2.57;;;1.70;;
18042;SDS011;9146;48.074;11.968;2023-04-03T14:30:55;1.70;;;1.60;;
18042;SDS011;9146;48.074;11.968;2023-04-03T14:33:22;1.70;;;1.60;;
18042;SDS011;9146;48.074;11.968;2023-04-03T14:35:51;1.90;;;1.63;;
18042;SDS011;9146;48.074;11.968;2023-04-03T14:38:21;1.53;;;1.43;;
18042;SDS011;9146;48.074;11.968;2023-04-03T14:40:51;3.03;;;1.50;;
18042;SDS011;9146;48.074;11.968;2023-04-03T14:43:19;2.00;;;1.20;;
18042;SDS011;9146;48.074;11.968;2023-04-03T14:45:48;1.73;;;1.63;;
18042;SDS011;9146;48.074;11.968;2023-04-03T14:48:19;4.63;;;1.70;;
18042;SDS011;9146;48.074;11.968;2023-04-03T14:50:50;1.87;;;1.47;;
18042;SDS011;9146;48.074;11.968;2023-04-03T14:53:18;2.80;;;1.90;;
18042;SDS011;9146;48.074;11.968;2023-04-03T14:55:47;5.10;;;1.70;;
18042;SDS011;9146;48.074;11.968;2023-04-03T14:58:16;2.23;;;1.50;;
18042;SDS011;9146;48.074;11.968;2023-04-03T15:00:44;1.90;;;1.27;;
18042;SDS011;9146;48.074;11.968;2023-04-03T15:03:12;1.90;;;1.80;;
18042;SDS011;9146;48.074;11.968;2023-04-03T15:05:43;1.60;;;1.50;;
18042;SDS011;9146;48.074;11.968;2023-04-03T15:08:17;5.90;;;1.67;;
18042;SDS011;9146;48.074;11.968;2023-04-03T15:10:46;5.43;;;1.20;;
18042;SDS011;9146;48.074;11.968;2023-04-03T15:13:13;2.40;;;1.60;;
18042;SDS011;9146;48.074;11.968;2023-04-03T15:15:40;14.03;;;1.83;;
18042;SDS011;9146;48.074;11.968;2023-04-03T15:18:10;2.00;;;1.80;;
18042;SDS011;9146;48.074;11.968;2023-04-03T15:20:42;2.20;;;1.40;;
18042;SDS011;9146;48.074;11.968;2023-04-03T15:23:10;1.57;;;1.47;;
18042;SDS011;9146;48.074;11.968;2023-04-03T15:25:38;1.53;;;1.43;;
18042;SDS011;9146;48.074;11.968;2023-04-03T15:28:06;3.03;;;1.57;;
18042;SDS011;9146;48.074;11.968;2023-04-03T15:30:36;1.60;;;1.50;;
18042;SDS011;9146;48.074;11.968;2023-04-03T15:33:05;1.73;;;1.53;;
18042;SDS011;9146;48.074;11.968;2023-04-03T15:35:32;2.93;;;1.47;;
18042;SDS011;9146;48.074;11.968;2023-04-03T15:38:01;1.70;;;1.60;;
18042;SDS011;9146;48.074;11.968;2023-04-03T15:40:27;1.70;;;1.60;;
18042;SDS011;9146;48.074;11.968;2023-04-03T15:42:54;4.63;;;1.80;;
18042;SDS011;9146;48.074;11.968;2023-04-03T15:45:21;1.27;;;1.20;;
18042;SDS011;9146;48.074;11.968;2023-04-03T15:47:48;2.20;;;1.30;;
18042;SDS011;9146;48.074;11.968;2023-04-03T15:50:16;1.50;;;1.40;;
18042;SDS011;9146;48.074;11.968;2023-04-03T15:52:43;3.53;;;2.40;;
18042;SDS011;9146;48.074;11.968;2023-04-03T15:55:11;2.00;;;1.60;;
18042;SDS011;9146;48.074;11.968;2023-04-03T15:57:38;1.53;;;1.30;;
18042;SDS011;9146;48.074;11.968;2023-04-03T16:00:06;4.73;;;1.97;;
18042;SDS011;9146;48.074;11.968;2023-04-03T16:02:33;1.40;;;1.40;;
18042;SDS011;9146;48.074;11.968;2023-04-03T16:05:00;1.37;;;1.27;;
18042;SDS011;9146;48.074;11.968;2023-04-03T16:07:28;1.77;;;1.70;;
18042;SDS011;9146;48.074;11.968;2023-04-03T16:09:55;1.90;;;1.40;;
18042;SDS011;9146;48.074;11.968;2023-04-03T16:12:23;4.00;;;1.70;;
18042;SDS011;9146;48.074;11.968;2023-04-03T16:14:50;2.50;;;1.50;;
18042;SDS011;9146;48.074;11.968;2023-04-03T16:17:17;1.80;;;1.70;;
18042;SDS011;9146;48.074;11.968;2023-04-03T16:19:45;1.43;;;1.33;;
18042;SDS011;9146;48.074;11.968;2023-04-03T16:22:11;1.50;;;1.40;;
18042;SDS011;9146;48.074;11.968;2023-04-03T16:24:39;3.43;;;1.90;;
18042;SDS011;9146;48.074;11.968;2023-04-03T16:27:06;3.50;;;2.03;;
18042;SDS011;9146;48.074;11.968;2023-04-03T16:29:35;1.40;;;1.30;;
18042;SDS011;9146;48.074;11.968;2023-04-03T16:32:02;2.00;;;1.80;;
18042;SDS011;9146;48.074;11.968;2023-04-03T16:34:30;4.80;;;1.43;;
18042;SDS011;9146;48.074;11.968;2023-04-03T16:36:57;1.50;;;1.40;;
18042;SDS011;9146;48.074;11.968;2023-04-03T16:39:25;1.37;;;1.27;;
18042;SDS011;9146;48.074;11.968;2023-04-03T16:41:52;6.87;;;2.17;;
18042;SDS011;9146;48.074;11.968;2023-04-03T16:44:19;1.77;;;1.33;;
18042;SDS011;9146;48.074;11.968;2023-04-03T16:46:48;2.53;;;1.60;;
18042;SDS011;9146;48.074;11.968;2023-04-03T16:49:15;2.00;;;1.77;;
18042;SDS011;9146;48.074;11.968;2023-04-03T16:51:42;1.93;;;1.80;;
18042;SDS011;9146;48.074;11.968;2023-04-03T16:54:10;2.70;;;1.63;;
18042;SDS011;9146;48.074;11.968;2023-04-03T16:56:38;5.50;;;2.13;;
18042;SDS011;9146;48.074;11.968;2023-04-03T16:59:05;2.73;;;1.50;;
18042;SDS011;9146;48.074;11.968;2023-04-03T17:01:33;1.90;;;1.73;;
18042;SDS011;9146;48.074;11.968;2023-04-03T17:04:01;2.10;;;1.87;;
18042;SDS011;9146;48.074;11.968;2023-04-03T17:06:28;2.07;;;1.70;;
18042;SDS011;9146;48.074;11.968;2023-04-03T17:08:55;2.90;;;2.13;;
18042;SDS011;9146;48.074;11.968;2023-04-03T17:11:22;2.70;;;1.80;;
18042;SDS011;9146;48.074;11.968;2023-04-03T17:13:50;2.73;;;1.90;;
18042;SDS011;9146;48.074;11.968;2023-04-03T17:16:17;3.27;;;1.70;;
18042;SDS011;9146;48.074;11.968;2023-04-03T17:18:45;2.30;;;1.70;;
18042;SDS011;9146;48.074;11.968;2023-04-03T17:21:14;2.27;;;2.07;;
18042;SDS011;9146;48.074;11.968;2023-04-03T17:23:43;1.57;;;1.47;;
18042;SDS011;9146;48.074;11.968;2023-04-03T17:26:12;2.53;;;1.63;;
18042;SDS011;9146;48.074;11.968;2023-04-03T17:28:39;1.50;;;1.40;;
18042;SDS011;9146;48.074;11.968;2023-04-03T17:31:06;3.70;;;1.77;;
18042;SDS011;9146;48.074;11.968;2023-04-03T17:33:33;1.63;;;1.53;;
18042;SDS011;9146;48.074;11.968;2023-04-03T17:36:01;2.03;;;1.60;;
18042;SDS011;9146;48.074;11.968;2023-04-03T17:38:30;5.27;;;1.70;;
18042;SDS011;9146;48.074;11.968;2023-04-03T17:40:59;2.77;;;2.00;;
18042;SDS011;9146;48.074;11.968;2023-04-03T17:43:27;1.93;;;1.40;;
18042;SDS011;9146;48.074;11.968;2023-04-03T17:45:58;3.70;;;2.03;;
18042;SDS011;9146;48.074;11.968;2023-04-03T17:48:27;3.63;;;2.63;;
18042;SDS011;9146;48.074;11.968;2023-04-03T17:50:54;10.20;;;2.40;;
18042;SDS011;9146;48.074;11.968;2023-04-03T17:53:21;2.87;;;1.87;;
18042;SDS011;9146;48.074;11.968;2023-04-03T17:55:50;1.57;;;1.40;;
18042;SDS011;9146;48.074;11.968;2023-04-03T17:58:17;2.40;;;1.57;;
18042;SDS011;9146;48.074;11.968;2023-04-03T18:00:44;7.33;;;1.60;;
18042;SDS011;9146;48.074;11.968;2023-04-03T18:03:11;4.23;;;1.60;;
18042;SDS011;9146;48.074;11.968;2023-04-03T18:05:38;5.90;;;2.10;;
18042;SDS011;9146;48.074;11.968;2023-04-03T18:08:05;3.23;;;1.77;;
18042;SDS011;9146;48.074;11.968;2023-04-03T18:10:34;1.73;;;1.60;;
18042;SDS011;9146;48.074;11.968;2023-04-03T18:13:02;5.17;;;1.57;;
18042;SDS011;9146;48.074;11.968;2023-04-03T18:15:30;3.33;;;1.90;;
18042;SDS011;9146;48.074;11.968;2023-04-03T18:17:57;2.17;;;1.97;;
18042;SDS011;9146;48.074;11.968;2023-04-03T18:20:24;2.87;;;2.50;;
18042;SDS011;9146;48.074;11.968;2023-04-03T18:22:51;6.97;;;2.80;;
18042;SDS011;9146;48.074;11.968;2023-04-03T18:25:18;8.70;;;3.23;;
18042;SDS011;9146;48.074;11.968;2023-04-03T18:27:45;3.77;;;3.03;;
18042;SDS011;9146;48.074;11.968;2023-04-03T18:30:16;4.30;;;2.80;;
18042;SDS011;9146;48.074;11.968;2023-04-03T18:32:43;3.43;;;2.87;;
18042;SDS011;9146;48.074;11.968;2023-04-03T18:35:10;2.90;;;2.70;;
18042;SDS011;9146;48.074;11.968;2023-04-03T18:37:37;4.83;;;2.90;;
18042;SDS011;9146;48.074;11.968;2023-04-03T18:40:05;2.43;;;2.23;;
18042;SDS011;9146;48.074;11.968;2023-04-03T18:42:32;2.50;;;2.30;;
18042;SDS011;9146;48.074;11.968;2023-04-03T18:45:00;3.40;;;2.70;;
18042;SDS011;9146;48.074;11.968;2023-04-03T18:47:32;2.70;;;2.30;;
18042;SDS011;9146;48.074;11.968;2023-04-03T18:50:00;3.03;;;2.70;;
18042;SDS011;9146;48.074;11.968;2023-04-03T18:52:29;2.70;;;2.50;;
18042;SDS011;9146;48.074;11.968;2023-04-03T18:54:56;4.70;;;2.80;;
18042;SDS011;9146;48.074;11.968;2023-04-03T18:57:23;2.60;;;2.20;;
18042;SDS011;9146;48.074;11.968;2023-04-03T18:59:51;2.47;;;2.27;;
18042;SDS011;9146;48.074;11.968;2023-04-03T19:02:18;3.40;;;1.80;;
18042;SDS011;9146;48.074;11.968;2023-04-03T19:04:48;5.57;;;2.83;;
18042;SDS011;9146;48.074;11.968;2023-04-03T19:07:17;2.80;;;2.30;;
18042;SDS011;9146;48.074;11.968;2023-04-03T19:09:44;2.27;;;2.07;;
18042;SDS011;9146;48.074;11.968;2023-04-03T19:12:11;2.60;;;2.40;;
18042;SDS011;9146;48.074;11.968;2023-04-03T19:14:38;3.17;;;2.93;;
18042;SDS011;9146;48.074;11.968;2023-04-03T19:17:05;2.40;;;2.20;;
18042;SDS011;9146;48.074;11.968;2023-04-03T19:19:33;3.20;;;2.87;;
18042;SDS011;9146;48.074;11.968;2023-04-03T19:22:01;4.47;;;2.43;;
18042;SDS011;9146;48.074;11.968;2023-04-03T19:24:28;2.50;;;2.30;;
18042;SDS011;9146;48.074;11.968;2023-04-03T19:26:55;3.57;;;2.43;;
18042;SDS011;9146;48.074;11.968;2023-04-03T19:29:22;3.20;;;3.00;;
18042;SDS011;9146;48.074;11.968;2023-04-03T19:31:49;2.27;;;2.07;;
18042;SDS011;9146;48.074;11.968;2023-04-03T19:34:16;2.80;;;2.57;;
18042;SDS011;9146;48.074;11.968;2023-04-03T19:36:44;3.40;;;2.60;;
18042;SDS011;9146;48.074;11.968;2023-04-03T19:39:13;3.07;;;2.43;;